sensor_id;sensor_type;location;lat;lon;timestamp;P1;durP1;ratioP1;P2;durP2;ratioP2
10554;SDS011;5326;51.522;7.388;2022-11-20T00:01:07;22.33;;;15.13;;
10554;SDS011;5326;51.522;7.388;2022-11-20T00:03:35;21.23;;;13.83;;
10554;SDS011;5326;51.522;7.388;2022-11-20T00:06:03;19.47;;;13.73;;
10554;SDS011;5326;51.522;7.388;2022-11-20T00:08:31;24.83;;;15.17;;
10554;SDS011;5326;51.522;7.388;2022-11-20T00:11:01;22.10;;;14.10;;
10554;SDS011;5326;51.522;7.388;2022-11-20T00:13:29;23.07;;;13.90;;
10554;SDS011;5326;51.522;7.388;2022-11-20T00:15:56;22.40;;;14.13;;
10554;SDS011;5326;51.522;7.388;2022-11-20T00:18:24;20.37;;;13.90;;
10554;SDS011;5326;51.522;7.388;2022-11-20T00:20:51;19.93;;;13.33;;
10554;SDS011;5326;51.522;7.388;2022-11-20T00:23:19;19.47;;;13.23;;
10554;SDS011;5326;51.522;7.388;2022-11-20T00:25:45;18.97;;;14.33;;
10554;SDS011;5326;51.522;7.388;2022-11-20T00:28:12;19.63;;;14.13;;
10554;SDS011;5326;51.522;7.388;2022-11-20T00:30:38;19.80;;;13.47;;
10554;SDS011;5326;51.522;7.388;2022-11-20T00:33:05;18.63;;;13.73;;
10554;SDS011;5326;51.522;7.388;2022-11-20T00:35:32;18.73;;;13.97;;
10554;SDS011;5326;51.522;7.388;2022-11-20T00:37:58;18.90;;;14.03;;
10554;SDS011;5326;51.522;7.388;2022-11-20T00:40:25;25.03;;;16.33;;
10554;SDS011;5326;51.522;7.388;2022-11-20T00:42:52;22.50;;;13.97;;
10554;SDS011;5326;51.522;7.388;2022-11-20T00:45:19;18.37;;;13.93;;
10554;SDS011;5326;51.522;7.388;2022-11-20T00:47:45;20.20;;;15.00;;
10554;SDS011;5326;51.522;7.388;2022-11-20T00:50:12;20.93;;;14.90;;
10554;SDS011;5326;51.522;7.388;2022-11-20T00:52:38;21.60;;;14.83;;
10554;SDS011;5326;51.522;7.388;2022-11-20T00:55:06;19.20;;;13.90;;
10554;SDS011;5326;51.522;7.388;2022-11-20T00:57:33;19.13;;;13.80;;
10554;SDS011;5326;51.522;7.388;2022-11-20T00:59:59;19.93;;;13.90;;
10554;SDS011;5326;51.522;7.388;2022-11-20T01:02:26;19.67;;;13.97;;
10554;SDS011;5326;51.522;7.388;2022-11-20T01:04:53;16.97;;;13.23;;
10554;SDS011;5326;51.522;7.388;2022-11-20T01:07:19;18.63;;;12.90;;
10554;SDS011;5326;51.522;7.388;2022-11-20T01:09:46;19.43;;;13.80;;
10554;SDS011;5326;51.522;7.388;2022-11-20T01:12:12;20.10;;;14.60;;
10554;SDS011;5326;51.522;7.388;2022-11-20T01:14:39;20.07;;;14.07;;
10554;SDS011;5326;51.522;7.388;2022-11-20T01:17:05;19.40;;;14.07;;
10554;SDS011;5326;51.522;7.388;2022-11-20T01:19:32;20.40;;;14.70;;
10554;SDS011;5326;51.522;7.388;2022-11-20T01:21:59;21.43;;;14.20;;
10554;SDS011;5326;51.522;7.388;2022-11-20T01:24:25;17.67;;;13.63;;
10554;SDS011;5326;51.522;7.388;2022-11-20T01:26:52;20.27;;;14.70;;
10554;SDS011;5326;51.522;7.388;2022-11-20T01:29:20;17.93;;;13.87;;
10554;SDS011;5326;51.522;7.388;2022-11-20T01:31:49;21.13;;;14.30;;
10554;SDS011;5326;51.522;7.388;2022-11-20T01:34:17;19.43;;;14.30;;
10554;SDS011;5326;51.522;7.388;2022-11-20T01:36:46;20.43;;;14.30;;
10554;SDS011;5326;51.522;7.388;2022-11-20T01:39:15;21.53;;;15.10;;
10554;SDS011;5326;51.522;7.388;2022-11-20T01:41:43;18.80;;;13.90;;
10554;SDS011;5326;51.522;7.388;2022-11-20T01:44:55;19.13;;;13.87;;
10554;SDS011;5326;51.522;7.388;2022-11-20T01:50:11;18.67;;;13.63;;
10554;SDS011;5326;51.522;7.388;2022-11-20T01:55:44;20.93;;;15.00;;
10554;SDS011;5326;51.522;7.388;2022-11-20T01:58:13;20.27;;;14.23;;
10554;SDS011;5326;51.522;7.388;2022-11-20T02:00:40;18.20;;;14.17;;
10554;SDS011;5326;51.522;7.388;2022-11-20T02:03:08;17.53;;;13.77;;
10554;SDS011;5326;51.522;7.388;2022-11-20T02:08:37;22.10;;;14.30;;
10554;SDS011;5326;51.522;7.388;2022-11-20T02:11:04;20.57;;;14.83;;
10554;SDS011;5326;51.522;7.388;2022-11-20T02:13:31;19.30;;;14.30;;
10554;SDS011;5326;51.522;7.388;2022-11-20T02:16:26;20.00;;;15.10;;
10554;SDS011;5326;51.522;7.388;2022-11-20T02:18:55;20.20;;;15.17;;
10554;SDS011;5326;51.522;7.388;2022-11-20T02:24:12;20.87;;;15.70;;
10554;SDS011;5326;51.522;7.388;2022-11-20T02:26:42;21.93;;;15.80;;
10554;SDS011;5326;51.522;7.388;2022-11-20T02:29:13;21.73;;;15.17;;
10554;SDS011;5326;51.522;7.388;2022-11-20T02:31:42;18.67;;;14.63;;
10554;SDS011;5326;51.522;7.388;2022-11-20T02:34:09;22.03;;;15.17;;
10554;SDS011;5326;51.522;7.388;2022-11-20T02:36:36;21.40;;;15.00;;
10554;SDS011;5326;51.522;7.388;2022-11-20T02:39:05;22.23;;;15.67;;
10554;SDS011;5326;51.522;7.388;2022-11-20T02:41:32;20.73;;;14.37;;
10554;SDS011;5326;51.522;7.388;2022-11-20T02:44:00;21.13;;;14.60;;
10554;SDS011;5326;51.522;7.388;2022-11-20T02:46:27;21.43;;;14.63;;
10554;SDS011;5326;51.522;7.388;2022-11-20T02:48:54;19.77;;;15.10;;
10554;SDS011;5326;51.522;7.388;2022-11-20T02:51:20;23.53;;;15.30;;
10554;SDS011;5326;51.522;7.388;2022-11-20T02:53:47;20.50;;;15.23;;
10554;SDS011;5326;51.522;7.388;2022-11-20T02:56:13;20.10;;;15.57;;
10554;SDS011;5326;51.522;7.388;2022-11-20T02:58:40;19.50;;;14.60;;
10554;SDS011;5326;51.522;7.388;2022-11-20T03:01:07;22.27;;;15.97;;
10554;SDS011;5326;51.522;7.388;2022-11-20T03:03:33;20.63;;;13.80;;
10554;SDS011;5326;51.522;7.388;2022-11-20T03:06:00;19.63;;;14.80;;
10554;SDS011;5326;51.522;7.388;2022-11-20T03:08:26;22.30;;;15.80;;
10554;SDS011;5326;51.522;7.388;2022-11-20T03:10:53;20.20;;;14.83;;
10554;SDS011;5326;51.522;7.388;2022-11-20T03:13:20;20.50;;;15.37;;
10554;SDS011;5326;51.522;7.388;2022-11-20T03:15:46;21.37;;;15.43;;
10554;SDS011;5326;51.522;7.388;2022-11-20T03:18:13;25.63;;;16.23;;
10554;SDS011;5326;51.522;7.388;2022-11-20T03:20:40;22.00;;;16.60;;
10554;SDS011;5326;51.522;7.388;2022-11-20T03:23:06;21.20;;;14.00;;
10554;SDS011;5326;51.522;7.388;2022-11-20T03:25:33;21.27;;;15.37;;
10554;SDS011;5326;51.522;7.388;2022-11-20T03:27:59;18.57;;;13.93;;
10554;SDS011;5326;51.522;7.388;2022-11-20T03:30:26;21.83;;;15.60;;
10554;SDS011;5326;51.522;7.388;2022-11-20T03:32:56;19.47;;;14.60;;
10554;SDS011;5326;51.522;7.388;2022-11-20T03:35:22;19.30;;;14.53;;
10554;SDS011;5326;51.522;7.388;2022-11-20T03:37:49;21.33;;;15.90;;
10554;SDS011;5326;51.522;7.388;2022-11-20T03:40:16;20.53;;;15.40;;
10554;SDS011;5326;51.522;7.388;2022-11-20T03:42:42;20.60;;;15.33;;
10554;SDS011;5326;51.522;7.388;2022-11-20T03:45:16;21.27;;;15.47;;
10554;SDS011;5326;51.522;7.388;2022-11-20T03:47:43;20.83;;;15.57;;
10554;SDS011;5326;51.522;7.388;2022-11-20T03:50:11;20.83;;;15.50;;
10554;SDS011;5326;51.522;7.388;2022-11-20T03:52:41;21.67;;;15.70;;
10554;SDS011;5326;51.522;7.388;2022-11-20T03:55:08;20.53;;;15.40;;
10554;SDS011;5326;51.522;7.388;2022-11-20T03:57:34;19.40;;;14.77;;
10554;SDS011;5326;51.522;7.388;2022-11-20T04:00:02;22.53;;;15.50;;
10554;SDS011;5326;51.522;7.388;2022-11-20T04:02:29;21.27;;;15.03;;
10554;SDS011;5326;51.522;7.388;2022-11-20T04:04:56;19.07;;;14.33;;
10554;SDS011;5326;51.522;7.388;2022-11-20T04:07:22;22.07;;;16.17;;
10554;SDS011;5326;51.522;7.388;2022-11-20T04:09:49;20.50;;;15.07;;
10554;SDS011;5326;51.522;7.388;2022-11-20T04:12:16;23.10;;;16.37;;
10554;SDS011;5326;51.522;7.388;2022-11-20T04:14:42;20.80;;;14.53;;
10554;SDS011;5326;51.522;7.388;2022-11-20T04:17:09;20.83;;;15.23;;
10554;SDS011;5326;51.522;7.388;2022-11-20T04:19:35;20.83;;;14.63;;
10554;SDS011;5326;51.522;7.388;2022-11-20T04:22:02;22.70;;;16.40;;
10554;SDS011;5326;51.522;7.388;2022-11-20T04:24:28;20.90;;;14.77;;
10554;SDS011;5326;51.522;7.388;2022-11-20T04:26:55;20.63;;;15.20;;
10554;SDS011;5326;51.522;7.388;2022-11-20T04:29:22;20.33;;;14.97;;
10554;SDS011;5326;51.522;7.388;2022-11-20T04:31:49;20.53;;;14.97;;
10554;SDS011;5326;51.522;7.388;2022-11-20T04:34:16;22.80;;;16.00;;
10554;SDS011;5326;51.522;7.388;2022-11-20T04:36:42;20.07;;;14.50;;
10554;SDS011;5326;51.522;7.388;2022-11-20T04:39:13;19.27;;;14.53;;
10554;SDS011;5326;51.522;7.388;2022-11-20T04:41:41;19.67;;;14.97;;
10554;SDS011;5326;51.522;7.388;2022-11-20T04:44:08;18.10;;;13.73;;
10554;SDS011;5326;51.522;7.388;2022-11-20T04:46:41;21.67;;;15.23;;
10554;SDS011;5326;51.522;7.388;2022-11-20T04:49:08;20.83;;;15.23;;
10554;SDS011;5326;51.522;7.388;2022-11-20T04:51:37;20.60;;;14.50;;
10554;SDS011;5326;51.522;7.388;2022-11-20T04:54:03;21.37;;;15.10;;
10554;SDS011;5326;51.522;7.388;2022-11-20T04:56:30;18.90;;;14.13;;
10554;SDS011;5326;51.522;7.388;2022-11-20T04:58:59;19.20;;;13.67;;
10554;SDS011;5326;51.522;7.388;2022-11-20T05:01:28;19.50;;;13.87;;
10554;SDS011;5326;51.522;7.388;2022-11-20T05:03:54;19.17;;;13.60;;
10554;SDS011;5326;51.522;7.388;2022-11-20T05:06:21;19.77;;;14.43;;
10554;SDS011;5326;51.522;7.388;2022-11-20T05:08:48;17.67;;;13.70;;
10554;SDS011;5326;51.522;7.388;2022-11-20T05:11:16;19.50;;;14.43;;
10554;SDS011;5326;51.522;7.388;2022-11-20T05:13:44;18.77;;;14.50;;
10554;SDS011;5326;51.522;7.388;2022-11-20T05:16:15;18.53;;;13.90;;
10554;SDS011;5326;51.522;7.388;2022-11-20T05:18:43;19.50;;;14.07;;
10554;SDS011;5326;51.522;7.388;2022-11-20T05:21:11;20.40;;;14.67;;
10554;SDS011;5326;51.522;7.388;2022-11-20T05:23:38;21.60;;;14.40;;
10554;SDS011;5326;51.522;7.388;2022-11-20T05:26:05;19.67;;;14.87;;
10554;SDS011;5326;51.522;7.388;2022-11-20T05:28:33;18.57;;;14.17;;
10554;SDS011;5326;51.522;7.388;2022-11-20T05:31:06;18.07;;;13.83;;
10554;SDS011;5326;51.522;7.388;2022-11-20T05:33:35;17.93;;;14.07;;
10554;SDS011;5326;51.522;7.388;2022-11-20T05:36:04;17.57;;;13.60;;
10554;SDS011;5326;51.522;7.388;2022-11-20T05:38:31;19.23;;;14.53;;
10554;SDS011;5326;51.522;7.388;2022-11-20T05:43:32;21.33;;;13.73;;
10554;SDS011;5326;51.522;7.388;2022-11-20T05:46:01;18.83;;;13.67;;
10554;SDS011;5326;51.522;7.388;2022-11-20T05:48:28;45.80;;;27.13;;
10554;SDS011;5326;51.522;7.388;2022-11-20T05:50:56;57.30;;;38.60;;
10554;SDS011;5326;51.522;7.388;2022-11-20T05:53:24;22.03;;;15.50;;
10554;SDS011;5326;51.522;7.388;2022-11-20T05:56:03;23.63;;;15.63;;
10554;SDS011;5326;51.522;7.388;2022-11-20T05:58:34;20.60;;;13.80;;
10554;SDS011;5326;51.522;7.388;2022-11-20T06:01:07;22.83;;;15.67;;
10554;SDS011;5326;51.522;7.388;2022-11-20T06:03:36;22.07;;;15.73;;
10554;SDS011;5326;51.522;7.388;2022-11-20T06:06:03;33.93;;;23.23;;
10554;SDS011;5326;51.522;7.388;2022-11-20T06:08:31;50.37;;;32.40;;
10554;SDS011;5326;51.522;7.388;2022-11-20T06:10:58;53.47;;;35.70;;
10554;SDS011;5326;51.522;7.388;2022-11-20T06:13:24;52.87;;;38.17;;
10554;SDS011;5326;51.522;7.388;2022-11-20T06:15:51;30.90;;;21.27;;
10554;SDS011;5326;51.522;7.388;2022-11-20T06:18:19;23.30;;;16.03;;
10554;SDS011;5326;51.522;7.388;2022-11-20T06:20:45;20.97;;;15.63;;
10554;SDS011;5326;51.522;7.388;2022-11-20T06:23:13;22.70;;;15.57;;
10554;SDS011;5326;51.522;7.388;2022-11-20T06:25:40;18.67;;;14.77;;
10554;SDS011;5326;51.522;7.388;2022-11-20T06:28:07;20.57;;;14.30;;
10554;SDS011;5326;51.522;7.388;2022-11-20T06:30:35;20.43;;;14.90;;
10554;SDS011;5326;51.522;7.388;2022-11-20T06:33:02;18.67;;;14.00;;
10554;SDS011;5326;51.522;7.388;2022-11-20T06:35:28;18.60;;;14.37;;
10554;SDS011;5326;51.522;7.388;2022-11-20T06:37:55;21.60;;;15.37;;
10554;SDS011;5326;51.522;7.388;2022-11-20T06:40:22;20.33;;;14.80;;
10554;SDS011;5326;51.522;7.388;2022-11-20T06:42:48;20.00;;;13.53;;
10554;SDS011;5326;51.522;7.388;2022-11-20T06:45:15;18.77;;;14.13;;
10554;SDS011;5326;51.522;7.388;2022-11-20T06:47:41;17.97;;;13.97;;
10554;SDS011;5326;51.522;7.388;2022-11-20T06:50:08;18.20;;;14.33;;
10554;SDS011;5326;51.522;7.388;2022-11-20T06:52:35;18.97;;;14.03;;
10554;SDS011;5326;51.522;7.388;2022-11-20T06:55:08;19.43;;;14.60;;
10554;SDS011;5326;51.522;7.388;2022-11-20T06:57:35;18.90;;;13.90;;
10554;SDS011;5326;51.522;7.388;2022-11-20T07:00:02;20.23;;;14.83;;
10554;SDS011;5326;51.522;7.388;2022-11-20T07:02:29;19.00;;;13.40;;
10554;SDS011;5326;51.522;7.388;2022-11-20T07:04:55;18.00;;;14.53;;
10554;SDS011;5326;51.522;7.388;2022-11-20T07:07:22;19.30;;;14.00;;
10554;SDS011;5326;51.522;7.388;2022-11-20T07:09:48;17.80;;;13.70;;
10554;SDS011;5326;51.522;7.388;2022-11-20T07:12:15;19.50;;;14.30;;
10554;SDS011;5326;51.522;7.388;2022-11-20T07:14:42;19.50;;;14.13;;
10554;SDS011;5326;51.522;7.388;2022-11-20T07:17:08;19.73;;;14.37;;
10554;SDS011;5326;51.522;7.388;2022-11-20T07:19:35;20.10;;;14.70;;
10554;SDS011;5326;51.522;7.388;2022-11-20T07:22:01;20.77;;;14.43;;
10554;SDS011;5326;51.522;7.388;2022-11-20T07:24:28;21.03;;;15.23;;
10554;SDS011;5326;51.522;7.388;2022-11-20T07:26:54;20.77;;;14.90;;
10554;SDS011;5326;51.522;7.388;2022-11-20T07:29:21;21.30;;;15.13;;
10554;SDS011;5326;51.522;7.388;2022-11-20T07:31:48;18.07;;;13.53;;
10554;SDS011;5326;51.522;7.388;2022-11-20T07:34:15;16.57;;;12.70;;
10554;SDS011;5326;51.522;7.388;2022-11-20T07:36:41;19.53;;;13.87;;
10554;SDS011;5326;51.522;7.388;2022-11-20T07:39:08;19.73;;;14.17;;
10554;SDS011;5326;51.522;7.388;2022-11-20T07:41:34;17.23;;;13.33;;
10554;SDS011;5326;51.522;7.388;2022-11-20T07:44:01;23.73;;;14.37;;
10554;SDS011;5326;51.522;7.388;2022-11-20T07:46:27;19.87;;;14.20;;
10554;SDS011;5326;51.522;7.388;2022-11-20T07:48:54;17.83;;;13.60;;
10554;SDS011;5326;51.522;7.388;2022-11-20T07:51:20;18.83;;;13.70;;
10554;SDS011;5326;51.522;7.388;2022-11-20T07:53:50;15.97;;;12.27;;
10554;SDS011;5326;51.522;7.388;2022-11-20T07:56:17;18.77;;;13.70;;
10554;SDS011;5326;51.522;7.388;2022-11-20T07:58:43;17.13;;;13.33;;
10554;SDS011;5326;51.522;7.388;2022-11-20T08:01:10;22.13;;;13.30;;
10554;SDS011;5326;51.522;7.388;2022-11-20T08:03:37;18.50;;;13.90;;
10554;SDS011;5326;51.522;7.388;2022-11-20T08:06:04;20.70;;;13.50;;
10554;SDS011;5326;51.522;7.388;2022-11-20T08:08:30;20.73;;;13.83;;
10554;SDS011;5326;51.522;7.388;2022-11-20T08:10:59;19.67;;;14.80;;
10554;SDS011;5326;51.522;7.388;2022-11-20T08:13:44;17.37;;;14.47;;
10554;SDS011;5326;51.522;7.388;2022-11-20T08:16:29;18.90;;;14.57;;
10554;SDS011;5326;51.522;7.388;2022-11-20T08:18:55;20.23;;;14.83;;
10554;SDS011;5326;51.522;7.388;2022-11-20T08:21:22;19.80;;;13.83;;
10554;SDS011;5326;51.522;7.388;2022-11-20T08:23:50;20.67;;;14.33;;
10554;SDS011;5326;51.522;7.388;2022-11-20T08:26:16;19.53;;;14.67;;
10554;SDS011;5326;51.522;7.388;2022-11-20T08:28:46;19.77;;;14.93;;
10554;SDS011;5326;51.522;7.388;2022-11-20T08:31:12;19.50;;;15.17;;
10554;SDS011;5326;51.522;7.388;2022-11-20T08:33:39;20.07;;;15.00;;
10554;SDS011;5326;51.522;7.388;2022-11-20T08:36:06;19.03;;;14.20;;
10554;SDS011;5326;51.522;7.388;2022-11-20T08:38:33;20.57;;;15.00;;
10554;SDS011;5326;51.522;7.388;2022-11-20T08:41:00;22.77;;;15.90;;
10554;SDS011;5326;51.522;7.388;2022-11-20T08:43:47;20.13;;;14.83;;
10554;SDS011;5326;51.522;7.388;2022-11-20T08:46:13;22.83;;;15.83;;
10554;SDS011;5326;51.522;7.388;2022-11-20T08:48:40;18.97;;;14.63;;
10554;SDS011;5326;51.522;7.388;2022-11-20T08:51:07;19.43;;;15.40;;
10554;SDS011;5326;51.522;7.388;2022-11-20T08:53:33;20.60;;;15.90;;
10554;SDS011;5326;51.522;7.388;2022-11-20T08:56:00;21.53;;;16.20;;
10554;SDS011;5326;51.522;7.388;2022-11-20T08:58:27;18.93;;;14.40;;
10554;SDS011;5326;51.522;7.388;2022-11-20T09:00:53;18.40;;;14.27;;
10554;SDS011;5326;51.522;7.388;2022-11-20T09:03:20;23.00;;;15.30;;
10554;SDS011;5326;51.522;7.388;2022-11-20T09:05:46;22.27;;;14.87;;
10554;SDS011;5326;51.522;7.388;2022-11-20T09:08:13;21.80;;;15.80;;
10554;SDS011;5326;51.522;7.388;2022-11-20T09:10:40;20.57;;;15.53;;
10554;SDS011;5326;51.522;7.388;2022-11-20T09:13:06;18.60;;;14.47;;
10554;SDS011;5326;51.522;7.388;2022-11-20T09:15:33;26.27;;;19.60;;
10554;SDS011;5326;51.522;7.388;2022-11-20T09:18:01;27.40;;;19.10;;
10554;SDS011;5326;51.522;7.388;2022-11-20T09:20:29;21.93;;;15.00;;
10554;SDS011;5326;51.522;7.388;2022-11-20T09:22:56;22.20;;;15.53;;
10554;SDS011;5326;51.522;7.388;2022-11-20T09:25:23;19.53;;;14.27;;
10554;SDS011;5326;51.522;7.388;2022-11-20T09:27:57;22.53;;;15.87;;
10554;SDS011;5326;51.522;7.388;2022-11-20T09:30:24;19.40;;;14.80;;
10554;SDS011;5326;51.522;7.388;2022-11-20T09:32:51;20.80;;;15.47;;
10554;SDS011;5326;51.522;7.388;2022-11-20T09:35:18;20.50;;;15.40;;
10554;SDS011;5326;51.522;7.388;2022-11-20T09:37:45;18.03;;;14.80;;
10554;SDS011;5326;51.522;7.388;2022-11-20T09:40:25;19.93;;;14.53;;
10554;SDS011;5326;51.522;7.388;2022-11-20T09:53:35;21.03;;;16.03;;
10554;SDS011;5326;51.522;7.388;2022-11-20T09:56:24;24.27;;;15.20;;
10554;SDS011;5326;51.522;7.388;2022-11-20T09:58:52;20.97;;;16.23;;
10554;SDS011;5326;51.522;7.388;2022-11-20T10:01:22;54.10;;;36.43;;
10554;SDS011;5326;51.522;7.388;2022-11-20T10:04:01;36.90;;;24.17;;
10554;SDS011;5326;51.522;7.388;2022-11-20T10:06:33;30.00;;;20.50;;
10554;SDS011;5326;51.522;7.388;2022-11-20T10:09:14;31.80;;;21.07;;
10554;SDS011;5326;51.522;7.388;2022-11-20T10:14:52;31.00;;;18.13;;
10554;SDS011;5326;51.522;7.388;2022-11-20T10:31:10;22.77;;;13.53;;
10554;SDS011;5326;51.522;7.388;2022-11-20T10:33:42;20.00;;;13.13;;
10554;SDS011;5326;51.522;7.388;2022-11-20T10:36:35;14.13;;;9.97;;
10554;SDS011;5326;51.522;7.388;2022-11-20T10:39:14;16.43;;;10.33;;
10554;SDS011;5326;51.522;7.388;2022-11-20T10:41:43;10.87;;;8.17;;
10554;SDS011;5326;51.522;7.388;2022-11-20T10:44:17;14.27;;;9.13;;
10554;SDS011;5326;51.522;7.388;2022-11-20T10:47:05;14.23;;;8.70;;
10554;SDS011;5326;51.522;7.388;2022-11-20T10:49:38;14.13;;;9.67;;
10554;SDS011;5326;51.522;7.388;2022-11-20T10:55:02;13.97;;;8.93;;
10554;SDS011;5326;51.522;7.388;2022-11-20T11:00:22;14.07;;;9.97;;
10554;SDS011;5326;51.522;7.388;2022-11-20T11:02:50;14.30;;;9.80;;
10554;SDS011;5326;51.522;7.388;2022-11-20T11:05:22;21.83;;;14.67;;
10554;SDS011;5326;51.522;7.388;2022-11-20T11:07:53;14.83;;;11.43;;
10554;SDS011;5326;51.522;7.388;2022-11-20T11:10:22;16.87;;;11.13;;
10554;SDS011;5326;51.522;7.388;2022-11-20T11:12:51;14.67;;;11.13;;
10554;SDS011;5326;51.522;7.388;2022-11-20T11:17:53;14.20;;;10.50;;
10554;SDS011;5326;51.522;7.388;2022-11-20T11:20:21;14.90;;;11.23;;
10554;SDS011;5326;51.522;7.388;2022-11-20T11:27:56;15.53;;;11.00;;
10554;SDS011;5326;51.522;7.388;2022-11-20T11:30:25;11.67;;;9.63;;
10554;SDS011;5326;51.522;7.388;2022-11-20T11:33:03;12.17;;;9.97;;
10554;SDS011;5326;51.522;7.388;2022-11-20T11:35:39;12.10;;;9.37;;
10554;SDS011;5326;51.522;7.388;2022-11-20T11:38:17;12.13;;;9.77;;
10554;SDS011;5326;51.522;7.388;2022-11-20T11:40:49;11.17;;;9.33;;
10554;SDS011;5326;51.522;7.388;2022-11-20T11:43:23;11.40;;;9.40;;
10554;SDS011;5326;51.522;7.388;2022-11-20T11:46:31;16.27;;;13.17;;
10554;SDS011;5326;51.522;7.388;2022-11-20T11:54:15;16.27;;;13.57;;
10554;SDS011;5326;51.522;7.388;2022-11-20T11:56:45;12.27;;;10.40;;
10554;SDS011;5326;51.522;7.388;2022-11-20T11:59:15;15.60;;;10.40;;
10554;SDS011;5326;51.522;7.388;2022-11-20T12:01:54;12.70;;;10.00;;
10554;SDS011;5326;51.522;7.388;2022-11-20T12:07:13;15.87;;;11.80;;
10554;SDS011;5326;51.522;7.388;2022-11-20T12:10:05;13.10;;;10.50;;
10554;SDS011;5326;51.522;7.388;2022-11-20T12:12:38;15.23;;;10.93;;
10554;SDS011;5326;51.522;7.388;2022-11-20T12:15:12;12.23;;;9.70;;
10554;SDS011;5326;51.522;7.388;2022-11-20T12:17:45;19.90;;;14.53;;
10554;SDS011;5326;51.522;7.388;2022-11-20T12:20:15;19.17;;;14.43;;
10554;SDS011;5326;51.522;7.388;2022-11-20T12:25:41;11.50;;;9.77;;
10554;SDS011;5326;51.522;7.388;2022-11-20T12:28:17;13.87;;;9.73;;
10554;SDS011;5326;51.522;7.388;2022-11-20T12:31:02;11.63;;;9.57;;
10554;SDS011;5326;51.522;7.388;2022-11-20T12:39:30;14.20;;;9.63;;
10554;SDS011;5326;51.522;7.388;2022-11-20T12:45:38;11.77;;;9.33;;
10554;SDS011;5326;51.522;7.388;2022-11-20T12:51:32;10.27;;;8.77;;
10554;SDS011;5326;51.522;7.388;2022-11-20T13:02:41;10.07;;;8.70;;
10554;SDS011;5326;51.522;7.388;2022-11-20T13:05:24;11.43;;;8.73;;
10554;SDS011;5326;51.522;7.388;2022-11-20T13:07:59;9.97;;;8.53;;
10554;SDS011;5326;51.522;7.388;2022-11-20T13:10:35;11.63;;;9.20;;
10554;SDS011;5326;51.522;7.388;2022-11-20T13:13:17;11.37;;;8.90;;
10554;SDS011;5326;51.522;7.388;2022-11-20T13:15:58;11.53;;;9.30;;
10554;SDS011;5326;51.522;7.388;2022-11-20T13:18:29;12.50;;;9.43;;
10554;SDS011;5326;51.522;7.388;2022-11-20T13:21:00;12.97;;;9.23;;
10554;SDS011;5326;51.522;7.388;2022-11-20T13:23:27;12.63;;;10.00;;
10554;SDS011;5326;51.522;7.388;2022-11-20T13:26:04;13.43;;;9.30;;
10554;SDS011;5326;51.522;7.388;2022-11-20T13:28:32;12.57;;;10.03;;
10554;SDS011;5326;51.522;7.388;2022-11-20T13:30:59;11.97;;;9.53;;
10554;SDS011;5326;51.522;7.388;2022-11-20T13:38:27;12.83;;;10.10;;
10554;SDS011;5326;51.522;7.388;2022-11-20T13:40:59;11.60;;;10.10;;
10554;SDS011;5326;51.522;7.388;2022-11-20T13:43:51;13.10;;;10.03;;
10554;SDS011;5326;51.522;7.388;2022-11-20T13:46:18;13.80;;;10.73;;
10554;SDS011;5326;51.522;7.388;2022-11-20T13:48:50;12.50;;;9.93;;
10554;SDS011;5326;51.522;7.388;2022-11-20T13:57:24;14.43;;;10.10;;
10554;SDS011;5326;51.522;7.388;2022-11-20T14:02:25;13.40;;;10.47;;
10554;SDS011;5326;51.522;7.388;2022-11-20T14:04:53;13.60;;;10.40;;
10554;SDS011;5326;51.522;7.388;2022-11-20T14:07:23;13.93;;;10.53;;
10554;SDS011;5326;51.522;7.388;2022-11-20T14:09:53;13.00;;;10.43;;
10554;SDS011;5326;51.522;7.388;2022-11-20T14:12:31;12.83;;;10.03;;
10554;SDS011;5326;51.522;7.388;2022-11-20T14:14:59;12.83;;;10.27;;
10554;SDS011;5326;51.522;7.388;2022-11-20T14:20:04;14.40;;;11.00;;
10554;SDS011;5326;51.522;7.388;2022-11-20T14:22:32;13.70;;;10.60;;
10554;SDS011;5326;51.522;7.388;2022-11-20T14:27:41;14.20;;;10.90;;
10554;SDS011;5326;51.522;7.388;2022-11-20T14:30:12;13.30;;;10.40;;
10554;SDS011;5326;51.522;7.388;2022-11-20T14:32:41;13.77;;;10.40;;
10554;SDS011;5326;51.522;7.388;2022-11-20T14:35:10;14.83;;;11.33;;
10554;SDS011;5326;51.522;7.388;2022-11-20T14:37:41;16.47;;;11.83;;
10554;SDS011;5326;51.522;7.388;2022-11-20T14:42:50;25.40;;;16.70;;
10554;SDS011;5326;51.522;7.388;2022-11-20T14:45:17;17.93;;;13.33;;
10554;SDS011;5326;51.522;7.388;2022-11-20T14:47:44;15.60;;;11.67;;
10554;SDS011;5326;51.522;7.388;2022-11-20T14:50:24;13.63;;;11.17;;
10554;SDS011;5326;51.522;7.388;2022-11-20T14:52:53;14.53;;;11.53;;
10554;SDS011;5326;51.522;7.388;2022-11-20T14:55:25;13.73;;;10.73;;
10554;SDS011;5326;51.522;7.388;2022-11-20T14:57:57;16.03;;;12.27;;
10554;SDS011;5326;51.522;7.388;2022-11-20T15:00:53;14.10;;;10.93;;
10554;SDS011;5326;51.522;7.388;2022-11-20T15:03:21;14.03;;;11.30;;
10554;SDS011;5326;51.522;7.388;2022-11-20T15:05:55;13.27;;;10.63;;
10554;SDS011;5326;51.522;7.388;2022-11-20T15:08:22;15.53;;;10.00;;
10554;SDS011;5326;51.522;7.388;2022-11-20T15:10:49;17.50;;;13.40;;
10554;SDS011;5326;51.522;7.388;2022-11-20T15:15:57;14.97;;;11.50;;
10554;SDS011;5326;51.522;7.388;2022-11-20T15:20:57;16.63;;;11.97;;
10554;SDS011;5326;51.522;7.388;2022-11-20T15:23:26;14.40;;;11.97;;
10554;SDS011;5326;51.522;7.388;2022-11-20T15:25:53;14.53;;;11.30;;
10554;SDS011;5326;51.522;7.388;2022-11-20T15:28:23;14.83;;;11.67;;
10554;SDS011;5326;51.522;7.388;2022-11-20T15:30:57;14.67;;;11.60;;
10554;SDS011;5326;51.522;7.388;2022-11-20T15:33:24;17.30;;;11.97;;
10554;SDS011;5326;51.522;7.388;2022-11-20T15:35:51;17.10;;;12.43;;
10554;SDS011;5326;51.522;7.388;2022-11-20T15:38:17;15.97;;;11.90;;
10554;SDS011;5326;51.522;7.388;2022-11-20T15:40:45;14.03;;;11.77;;
10554;SDS011;5326;51.522;7.388;2022-11-20T15:43:12;17.33;;;11.67;;
10554;SDS011;5326;51.522;7.388;2022-11-20T15:45:40;16.30;;;12.13;;
10554;SDS011;5326;51.522;7.388;2022-11-20T15:48:10;16.03;;;12.53;;
10554;SDS011;5326;51.522;7.388;2022-11-20T15:50:42;16.20;;;12.20;;
10554;SDS011;5326;51.522;7.388;2022-11-20T15:53:13;16.03;;;12.23;;
10554;SDS011;5326;51.522;7.388;2022-11-20T15:55:40;16.13;;;13.00;;
10554;SDS011;5326;51.522;7.388;2022-11-20T15:58:06;16.07;;;12.27;;
10554;SDS011;5326;51.522;7.388;2022-11-20T16:00:33;17.17;;;12.73;;
10554;SDS011;5326;51.522;7.388;2022-11-20T16:03:00;17.77;;;13.60;;
10554;SDS011;5326;51.522;7.388;2022-11-20T16:05:29;15.13;;;11.87;;
10554;SDS011;5326;51.522;7.388;2022-11-20T16:07:56;15.57;;;12.33;;
10554;SDS011;5326;51.522;7.388;2022-11-20T16:10:23;17.33;;;12.73;;
10554;SDS011;5326;51.522;7.388;2022-11-20T16:12:50;17.80;;;13.37;;
10554;SDS011;5326;51.522;7.388;2022-11-20T16:15:35;18.50;;;12.53;;
10554;SDS011;5326;51.522;7.388;2022-11-20T16:18:15;19.20;;;13.93;;
10554;SDS011;5326;51.522;7.388;2022-11-20T16:20:48;21.30;;;14.27;;
10554;SDS011;5326;51.522;7.388;2022-11-20T16:23:16;19.13;;;14.87;;
10554;SDS011;5326;51.522;7.388;2022-11-20T16:25:43;20.97;;;15.23;;
10554;SDS011;5326;51.522;7.388;2022-11-20T16:28:10;19.60;;;14.23;;
10554;SDS011;5326;51.522;7.388;2022-11-20T16:30:43;23.67;;;16.37;;
10554;SDS011;5326;51.522;7.388;2022-11-20T16:33:11;23.03;;;15.80;;
10554;SDS011;5326;51.522;7.388;2022-11-20T16:35:40;20.40;;;14.83;;
10554;SDS011;5326;51.522;7.388;2022-11-20T16:38:07;18.67;;;14.53;;
10554;SDS011;5326;51.522;7.388;2022-11-20T16:40:34;23.33;;;17.17;;
10554;SDS011;5326;51.522;7.388;2022-11-20T16:43:10;19.47;;;15.30;;